Time;durP1;ratioP1;P1;durP2;ratioP2;P2;SDS_P1;SDS_P2;PMS_P1;PMS_P2;Temp;Humidity;BMP_temperature;BMP_pressure;BME280_temperature;BME280_humidity;BME280_pressure;Samples;Min_cycle;Max_cycle;Signal;HPM_P1;HPM_P2
2023/10/31 00:00:09;;;;;;;22.67;11.38;;;;;;;;;;5029420;28;20025;-84
2023/10/31 00:02:34;;;;;;;16.85;10.85;;;;;;;;;;5012509;28;20029;-83
2023/10/31 00:05:00;;;;;;;17.33;10.98;;;;;;;;;;4992082;28;20026;-83
2023/10/31 00:07:25;;;;;;;18.77;11.18;;;;;;;;;;5012196;28;20029;-83
2023/10/31 00:09:50;;;;;;;18.92;11.23;;;;;;;;;;5015757;28;20020;-83
2023/10/31 00:12:15;;;;;;;20.38;11.35;;;;;;;;;;5027800;28;20471;-83
2023/10/31 00:14:41;;;;;;;20.98;12.35;;;;;;;;;;5028933;28;20045;-83
2023/10/31 00:17:06;;;;;;;27.15;14.52;;;;;;;;;;5024027;28;20014;-82
2023/10/31 00:19:32;;;;;;;25.17;13.27;;;;;;;;;;5008007;28;20029;-83
2023/10/31 00:21:57;;;;;;;25.30;13.60;;;;;;;;;;5010838;28;20014;-83
2023/10/31 00:24:22;;;;;;;25.85;13.63;;;;;;;;;;5027733;28;20021;-83
2023/10/31 00:26:48;;;;;;;23.90;13.07;;;;;;;;;;5027547;28;20049;-83
2023/10/31 00:29:14;;;;;;;24.25;14.52;;;;;;;;;;5010997;28;20475;-83
2023/10/31 00:31:42;;;;;;;25.20;14.68;;;;;;;;;;5007751;28;20064;-83
2023/10/31 00:34:08;;;;;;;26.27;14.40;;;;;;;;;;5023237;28;20025;-83
2023/10/31 00:36:33;;;;;;;23.40;13.43;;;;;;;;;;5027688;28;20678;-82
2023/10/31 00:38:59;;;;;;;24.77;13.73;;;;;;;;;;5015991;28;20129;-83
2023/10/31 00:41:24;;;;;;;23.77;12.98;;;;;;;;;;5007480;28;20021;-82
2023/10/31 00:43:49;;;;;;;26.92;13.57;;;;;;;;;;4999834;28;20402;-83
2023/10/31 00:46:15;;;;;;;23.15;12.63;;;;;;;;;;5028536;28;20025;-83
2023/10/31 00:48:40;;;;;;;28.52;13.93;;;;;;;;;;5022312;28;20108;-83
2023/10/31 00:51:07;;;;;;;25.70;13.95;;;;;;;;;;4991224;28;20022;-82
2023/10/31 00:53:32;;;;;;;35.05;16.40;;;;;;;;;;5010707;28;20539;-83
2023/10/31 00:55:57;;;;;;;24.52;15.13;;;;;;;;;;5028964;28;20048;-83
2023/10/31 00:58:23;;;;;;;20.73;13.00;;;;;;;;;;5027900;28;20404;-83
2023/10/31 01:00:49;;;;;;;22.42;12.70;;;;;;;;;;5010136;28;20058;-83
2023/10/31 01:03:15;;;;;;;24.77;12.30;;;;;;;;;;5009622;28;20021;-83
2023/10/31 01:05:40;;;;;;;17.67;11.38;;;;;;;;;;5024126;28;20028;-83
2023/10/31 01:08:07;;;;;;;21.52;11.70;;;;;;;;;;5012580;28;20021;-82
2023/10/31 01:10:32;;;;;;;23.92;12.95;;;;;;;;;;5016568;28;20105;-83
2023/10/31 01:12:59;;;;;;;24.17;12.68;;;;;;;;;;5012257;28;20449;-82
2023/10/31 01:15:25;;;;;;;24.60;12.80;;;;;;;;;;5003200;28;20034;-82
2023/10/31 01:17:50;;;;;;;21.08;12.20;;;;;;;;;;5008503;28;20748;-83
2023/10/31 01:20:15;;;;;;;23.90;12.57;;;;;;;;;;5007409;28;20049;-82
2023/10/31 01:22:40;;;;;;;21.20;13.68;;;;;;;;;;5008587;28;20529;-82
2023/10/31 01:25:06;;;;;;;22.10;12.73;;;;;;;;;;4990715;28;20097;-83
2023/10/31 01:27:31;;;;;;;20.38;12.30;;;;;;;;;;4990980;28;20065;-82
2023/10/31 01:29:56;;;;;;;18.85;11.05;;;;;;;;;;5007593;28;20033;-83
2023/10/31 01:32:23;;;;;;;18.70;10.73;;;;;;;;;;5011397;28;20037;-83
2023/10/31 01:34:48;;;;;;;19.10;11.57;;;;;;;;;;5008542;28;20022;-82
2023/10/31 01:37:14;;;;;;;16.23;11.05;;;;;;;;;;5009556;28;20024;-82
2023/10/31 01:39:39;;;;;;;14.60;9.85;;;;;;;;;;5011416;28;20104;-82
2023/10/31 01:42:05;;;;;;;17.88;9.55;;;;;;;;;;4998996;28;20522;-83
2023/10/31 01:44:30;;;;;;;22.15;10.40;;;;;;;;;;5006548;28;20113;-82
2023/10/31 01:46:55;;;;;;;16.02;8.80;;;;;;;;;;5016545;28;20049;-82
2023/10/31 01:49:21;;;;;;;19.10;10.50;;;;;;;;;;5027252;28;20052;-83
2023/10/31 01:51:47;;;;;;;16.70;10.48;;;;;;;;;;5021730;28;20068;-83
2023/10/31 01:54:12;;;;;;;21.77;9.98;;;;;;;;;;5006852;28;20018;-83
2023/10/31 01:56:38;;;;;;;20.20;10.35;;;;;;;;;;5008579;28;20029;-83
2023/10/31 01:59:05;;;;;;;16.48;10.05;;;;;;;;;;5010995;28;20423;-83
2023/10/31 02:01:32;;;;;;;16.80;10.10;;;;;;;;;;5007094;28;20037;-83
2023/10/31 02:03:58;;;;;;;17.67;10.13;;;;;;;;;;5025901;28;20037;-83
2023/10/31 02:06:24;;;;;;;24.65;13.70;;;;;;;;;;5029739;28;20029;-83
2023/10/31 02:08:49;;;;;;;20.08;12.35;;;;;;;;;;5028611;28;20029;-83
2023/10/31 02:11:14;;;;;;;23.88;13.20;;;;;;;;;;5031895;28;20052;-83
2023/10/31 02:13:40;;;;;;;23.27;13.38;;;;;;;;;;5020199;28;20021;-82
2023/10/31 02:16:06;;;;;;;22.95;14.05;;;;;;;;;;5012337;28;20018;-82
2023/10/31 02:18:31;;;;;;;24.50;13.90;;;;;;;;;;5003388;28;20022;-82
2023/10/31 02:20:57;;;;;;;23.88;12.57;;;;;;;;;;5030638;28;20018;-82
2023/10/31 02:23:22;;;;;;;17.10;11.40;;;;;;;;;;5024849;28;20037;-84
2023/10/31 02:25:47;;;;;;;18.75;11.20;;;;;;;;;;5011645;28;20022;-82
2023/10/31 02:28:12;;;;;;;17.80;11.13;;;;;;;;;;5012339;28;20407;-82
2023/10/31 02:30:38;;;;;;;20.13;11.38;;;;;;;;;;5031211;28;20033;-83
2023/10/31 02:33:03;;;;;;;21.33;11.73;;;;;;;;;;5014121;28;20021;-82
2023/10/31 02:35:28;;;;;;;24.38;12.32;;;;;;;;;;4998009;28;20076;-82
2023/10/31 02:37:54;;;;;;;23.38;11.40;;;;;;;;;;5010546;28;20037;-82
2023/10/31 02:40:19;;;;;;;20.85;11.23;;;;;;;;;;5006282;28;20483;-82
2023/10/31 02:42:44;;;;;;;20.30;12.45;;;;;;;;;;5030060;28;20017;-82
2023/10/31 02:45:10;;;;;;;16.85;10.45;;;;;;;;;;5019947;28;20032;-82
2023/10/31 02:47:35;;;;;;;18.55;11.13;;;;;;;;;;5010856;28;20014;-83
2023/10/31 02:50:01;;;;;;;22.92;11.40;;;;;;;;;;5015210;28;20467;-82
2023/10/31 02:52:26;;;;;;;18.83;12.35;;;;;;;;;;5029134;28;20074;-83
2023/10/31 02:54:51;;;;;;;17.30;11.80;;;;;;;;;;5030117;28;20113;-82
2023/10/31 02:57:17;;;;;;;18.83;11.50;;;;;;;;;;5029088;28;20017;-83
2023/10/31 02:59:42;;;;;;;18.73;11.13;;;;;;;;;;5013003;28;20063;-83
2023/10/31 03:02:07;;;;;;;19.38;10.13;;;;;;;;;;5009368;28;20033;-82
2023/10/31 03:04:33;;;;;;;20.20;11.18;;;;;;;;;;5010369;28;20095;-82
2023/10/31 03:06:58;;;;;;;17.45;11.65;;;;;;;;;;5025939;28;20463;-82
2023/10/31 03:09:23;;;;;;;19.10;11.63;;;;;;;;;;5029237;28;20017;-82
2023/10/31 03:11:49;;;;;;;19.08;11.23;;;;;;;;;;5016336;28;20038;-82
2023/10/31 03:14:14;;;;;;;19.60;11.65;;;;;;;;;;5009806;28;20026;-82
2023/10/31 03:16:39;;;;;;;17.35;11.10;;;;;;;;;;5004503;28;20025;-82
2023/10/31 03:19:05;;;;;;;18.25;11.35;;;;;;;;;;5028840;28;20369;-82
2023/10/31 03:21:30;;;;;;;15.77;11.10;;;;;;;;;;5028410;28;20026;-83
2023/10/31 03:23:56;;;;;;;16.48;10.32;;;;;;;;;;5031128;28;20021;-85
2023/10/31 03:26:21;;;;;;;16.08;10.60;;;;;;;;;;5028524;28;20022;-83
2023/10/31 03:28:46;;;;;;;17.50;11.23;;;;;;;;;;5005835;28;20057;-83
2023/10/31 03:31:12;;;;;;;17.52;11.27;;;;;;;;;;5005276;28;20042;-83
2023/10/31 03:33:38;;;;;;;15.75;10.55;;;;;;;;;;5023456;28;20041;-83
2023/10/31 03:36:03;;;;;;;18.92;10.15;;;;;;;;;;5008618;28;20022;-83
2023/10/31 03:38:29;;;;;;;15.20;10.65;;;;;;;;;;5009013;28;20611;-83
2023/10/31 03:40:54;;;;;;;17.60;10.50;;;;;;;;;;4988845;28;20405;-84
2023/10/31 03:43:19;;;;;;;16.70;10.63;;;;;;;;;;5016306;28;20029;-83
2023/10/31 03:45:46;;;;;;;15.20;10.55;;;;;;;;;;5008806;28;20084;-83
2023/10/31 03:48:11;;;;;;;16.70;9.70;;;;;;;;;;5016886;28;20022;-82
2023/10/31 03:50:36;;;;;;;19.20;11.55;;;;;;;;;;4990130;28;20650;-83
2023/10/31 03:53:02;;;;;;;22.48;14.23;;;;;;;;;;4990223;28;20033;-83
2023/10/31 03:55:27;;;;;;;24.30;16.58;;;;;;;;;;5005209;28;20377;-83
2023/10/31 03:57:52;;;;;;;23.58;15.23;;;;;;;;;;5014387;28;20068;-83
2023/10/31 04:00:18;;;;;;;22.02;14.70;;;;;;;;;;5009918;28;20030;-83
2023/10/31 04:02:43;;;;;;;20.92;16.20;;;;;;;;;;5004893;28;20109;-82
2023/10/31 04:05:09;;;;;;;22.52;14.77;;;;;;;;;;5005981;28;20080;-82
2023/10/31 04:07:34;;;;;;;23.23;13.23;;;;;;;;;;5009497;28;20068;-83
2023/10/31 04:09:59;;;;;;;19.27;10.82;;;;;;;;;;5010182;28;20708;-82
2023/10/31 04:12:26;;;;;;;19.65;11.02;;;;;;;;;;5004260;28;20121;-84
2023/10/31 04:14:51;;;;;;;22.27;14.40;;;;;;;;;;5015349;28;20032;-84
2023/10/31 04:17:16;;;;;;;25.67;14.85;;;;;;;;;;5009437;28;20497;-84
2023/10/31 04:19:41;;;;;;;23.63;15.85;;;;;;;;;;5001253;28;20018;-84
2023/10/31 04:22:07;;;;;;;25.60;16.02;;;;;;;;;;5005648;28;20675;-84
2023/10/31 04:24:33;;;;;;;26.58;16.80;;;;;;;;;;5004592;28;20026;-84
2023/10/31 04:26:58;;;;;;;25.35;16.58;;;;;;;;;;4991120;28;20514;-83
2023/10/31 04:29:23;;;;;;;35.70;19.80;;;;;;;;;;5009956;28;20022;-83
2023/10/31 04:31:49;;;;;;;23.35;13.50;;;;;;;;;;5028526;28;20103;-84
2023/10/31 04:34:14;;;;;;;16.08;10.38;;;;;;;;;;5031435;28;20022;-82
2023/10/31 04:36:39;;;;;;;24.80;15.23;;;;;;;;;;5011952;28;20033;-84
2023/10/31 04:39:05;;;;;;;22.52;14.18;;;;;;;;;;5027355;28;20048;-82
2023/10/31 04:41:30;;;;;;;17.50;11.32;;;;;;;;;;5014794;28;20021;-81
2023/10/31 04:43:56;;;;;;;19.38;11.93;;;;;;;;;;5007279;28;20052;-82
2023/10/31 04:46:21;;;;;;;19.67;11.30;;;;;;;;;;5019556;28;20021;-82
2023/10/31 04:48:46;;;;;;;19.85;11.68;;;;;;;;;;5027024;28;20087;-82
2023/10/31 04:51:12;;;;;;;16.95;10.88;;;;;;;;;;5019481;28;20049;-84
2023/10/31 04:53:37;;;;;;;17.08;12.25;;;;;;;;;;5008949;28;20097;-82
2023/10/31 04:56:03;;;;;;;17.73;11.32;;;;;;;;;;5012576;28;20109;-82
2023/10/31 04:58:29;;;;;;;17.50;9.98;;;;;;;;;;5027520;28;20364;-82
2023/10/31 05:00:55;;;;;;;16.73;11.70;;;;;;;;;;5025607;28;20403;-82
2023/10/31 05:03:20;;;;;;;19.33;12.32;;;;;;;;;;5008485;28;20029;-82
2023/10/31 05:05:45;;;;;;;20.90;13.07;;;;;;;;;;5008308;28;20018;-82
2023/10/31 05:08:10;;;;;;;19.98;13.52;;;;;;;;;;5024569;28;20087;-82
2023/10/31 05:10:36;;;;;;;19.13;11.90;;;;;;;;;;5027988;28;20392;-84
2023/10/31 05:13:04;;;;;;;20.02;11.93;;;;;;;;;;5021201;28;20024;-84
2023/10/31 05:15:29;;;;;;;20.60;12.57;;;;;;;;;;5024899;28;20017;-83
2023/10/31 05:17:54;;;;;;;18.90;12.18;;;;;;;;;;5010480;28;20502;-83
2023/10/31 05:20:20;;;;;;;17.70;11.65;;;;;;;;;;5028359;28;20018;-84
2023/10/31 05:22:45;;;;;;;20.38;11.27;;;;;;;;;;5010297;28;20376;-84
2023/10/31 05:25:12;;;;;;;15.00;10.20;;;;;;;;;;5010054;28;20014;-83
2023/10/31 05:27:39;;;;;;;15.82;9.90;;;;;;;;;;5023749;28;20033;-83
2023/10/31 05:30:04;;;;;;;15.35;9.73;;;;;;;;;;5026914;28;20017;-83
2023/10/31 05:32:29;;;;;;;19.13;11.32;;;;;;;;;;5025913;28;20080;-82
2023/10/31 05:34:55;;;;;;;20.90;11.15;;;;;;;;;;5008337;28;20067;-83
2023/10/31 05:37:20;;;;;;;15.25;10.02;;;;;;;;;;5007086;28;20472;-83
2023/10/31 05:39:46;;;;;;;18.63;12.20;;;;;;;;;;5025660;28;20018;-83
2023/10/31 05:42:11;;;;;;;16.33;11.50;;;;;;;;;;5026284;28;20521;-83
2023/10/31 05:44:37;;;;;;;16.98;11.02;;;;;;;;;;5027044;28;20033;-84
2023/10/31 05:47:03;;;;;;;16.42;10.80;;;;;;;;;;5031597;28;20071;-83
2023/10/31 05:49:30;;;;;;;21.75;11.40;;;;;;;;;;5032204;28;20049;-83
2023/10/31 05:51:56;;;;;;;17.42;12.00;;;;;;;;;;5011616;28;20599;-83
2023/10/31 05:54:21;;;;;;;20.42;13.23;;;;;;;;;;5022214;28;20387;-83
2023/10/31 05:56:47;;;;;;;15.05;10.30;;;;;;;;;;5030358;28;20013;-83
2023/10/31 05:59:12;;;;;;;15.68;10.40;;;;;;;;;;5028053;28;20025;-83
2023/10/31 06:01:37;;;;;;;15.95;10.02;;;;;;;;;;5026135;28;20475;-83
2023/10/31 06:04:03;;;;;;;14.57;9.10;;;;;;;;;;5021189;28;20029;-82
2023/10/31 06:06:30;;;;;;;13.63;9.25;;;;;;;;;;5021813;28;20497;-82
2023/10/31 06:08:55;;;;;;;14.00;9.48;;;;;;;;;;5022483;28;20483;-82
2023/10/31 06:11:20;;;;;;;13.52;9.88;;;;;;;;;;5022465;28;20029;-83
2023/10/31 06:13:47;;;;;;;16.40;11.65;;;;;;;;;;5002953;28;20073;-82
2023/10/31 06:16:13;;;;;;;22.85;14.25;;;;;;;;;;5013784;28;20032;-83
2023/10/31 06:18:39;;;;;;;22.40;14.77;;;;;;;;;;5011595;28;20089;-83
2023/10/31 06:21:05;;;;;;;31.42;19.58;;;;;;;;;;5011488;28;20018;-82
2023/10/31 06:23:31;;;;;;;30.05;18.60;;;;;;;;;;5011953;28;20048;-83
2023/10/31 06:25:56;;;;;;;18.30;12.70;;;;;;;;;;5021131;28;20030;-82
2023/10/31 06:28:22;;;;;;;16.88;11.35;;;;;;;;;;5031141;28;20545;-82
2023/10/31 06:30:48;;;;;;;20.63;12.52;;;;;;;;;;5023068;28;20068;-83
2023/10/31 06:33:13;;;;;;;27.98;18.95;;;;;;;;;;5009955;28;20041;-82
2023/10/31 06:35:38;;;;;;;30.42;19.25;;;;;;;;;;5012928;28;20494;-83
2023/10/31 06:38:04;;;;;;;26.80;18.33;;;;;;;;;;5029286;28;20048;-83
2023/10/31 06:40:29;;;;;;;35.10;21.63;;;;;;;;;;5030545;28;20499;-82
2023/10/31 06:42:54;;;;;;;32.88;21.90;;;;;;;;;;5009484;28;20029;-83
2023/10/31 06:45:20;;;;;;;37.50;20.70;;;;;;;;;;5010036;28;20102;-82
2023/10/31 06:47:45;;;;;;;34.13;21.75;;;;;;;;;;5025641;28;20021;-83
2023/10/31 06:50:10;;;;;;;38.65;22.35;;;;;;;;;;5019309;28;20134;-80
2023/10/31 06:52:36;;;;;;;30.08;20.38;;;;;;;;;;5025147;28;20028;-83
2023/10/31 06:55:01;;;;;;;29.60;18.00;;;;;;;;;;5017663;28;20027;-84
2023/10/31 06:57:26;;;;;;;36.78;23.60;;;;;;;;;;5030603;28;20493;-83
2023/10/31 06:59:52;;;;;;;50.15;26.25;;;;;;;;;;5031030;28;20103;-83
2023/10/31 07:02:17;;;;;;;45.47;24.85;;;;;;;;;;5029880;28;20045;-85
2023/10/31 07:04:43;;;;;;;35.78;22.88;;;;;;;;;;5031694;28;20096;-85
2023/10/31 07:07:08;;;;;;;40.55;25.83;;;;;;;;;;5010647;28;20022;-84
2023/10/31 07:09:33;;;;;;;42.97;24.70;;;;;;;;;;5012881;28;20033;-84
2023/10/31 07:11:59;;;;;;;30.85;19.10;;;;;;;;;;5009187;28;20037;-85
2023/10/31 07:14:24;;;;;;;30.88;18.67;;;;;;;;;;5028818;28;20021;-84
2023/10/31 07:16:49;;;;;;;31.75;18.70;;;;;;;;;;5028751;28;20045;-84
2023/10/31 07:19:14;;;;;;;30.42;18.50;;;;;;;;;;5028628;28;20017;-84
2023/10/31 07:21:40;;;;;;;30.52;19.00;;;;;;;;;;5028677;28;20032;-85
2023/10/31 07:24:07;;;;;;;32.20;22.55;;;;;;;;;;5028067;28;20479;-84
2023/10/31 07:26:32;;;;;;;38.95;26.35;;;;;;;;;;5026503;28;20068;-85
2023/10/31 07:28:58;;;;;;;45.92;27.98;;;;;;;;;;5011283;28;20029;-86
2023/10/31 07:31:23;;;;;;;57.20;33.97;;;;;;;;;;5029316;28;20030;-85
2023/10/31 07:33:48;;;;;;;29.88;20.65;;;;;;;;;;5019538;28;20025;-85
2023/10/31 07:36:14;;;;;;;42.65;25.42;;;;;;;;;;5005128;28;20144;-85
2023/10/31 07:38:39;;;;;;;25.55;15.90;;;;;;;;;;5031791;28;20041;-88
2023/10/31 07:41:04;;;;;;;18.88;10.88;;;;;;;;;;5034618;28;20578;-85
2023/10/31 07:43:30;;;;;;;24.80;12.70;;;;;;;;;;5033701;28;20025;-85
2023/10/31 07:45:55;;;;;;;25.13;13.52;;;;;;;;;;5031434;28;20028;-85
2023/10/31 07:48:20;;;;;;;20.98;13.40;;;;;;;;;;5031385;28;20018;-82
2023/10/31 07:50:46;;;;;;;20.17;13.77;;;;;;;;;;5034905;28;20416;-84
2023/10/31 07:53:11;;;;;;;20.48;11.30;;;;;;;;;;5046006;28;20018;-82
2023/10/31 07:55:36;;;;;;;16.45;10.88;;;;;;;;;;5042937;28;20021;-85
2023/10/31 07:58:02;;;;;;;26.33;14.27;;;;;;;;;;5029460;28;20021;-86
2023/10/31 08:00:27;;;;;;;23.80;13.18;;;;;;;;;;5024642;28;20440;-84
2023/10/31 08:02:52;;;;;;;21.30;12.40;;;;;;;;;;4991828;28;20495;-84
2023/10/31 08:05:18;;;;;;;20.15;12.25;;;;;;;;;;5016107;28;20021;-87
2023/10/31 08:07:45;;;;;;;15.32;9.60;;;;;;;;;;5013533;28;20125;-89
2023/10/31 08:10:11;;;;;;;14.43;8.33;;;;;;;;;;5007561;28;20616;-85
2023/10/31 08:12:36;;;;;;;12.07;7.35;;;;;;;;;;5010265;28;20025;-85
2023/10/31 08:15:02;;;;;;;11.30;6.82;;;;;;;;;;5018899;28;20013;-85
2023/10/31 08:17:27;;;;;;;10.18;6.45;;;;;;;;;;5035836;28;20021;-85
2023/10/31 08:19:52;;;;;;;9.15;3.85;;;;;;;;;;5029554;28;20022;-85
2023/10/31 08:22:18;;;;;;;5.75;3.75;;;;;;;;;;5026039;28;20029;-86
2023/10/31 08:24:43;;;;;;;6.75;3.00;;;;;;;;;;5012990;28;20041;-85
2023/10/31 08:27:10;;;;;;;6.07;3.28;;;;;;;;;;5011248;28;20037;-86
2023/10/31 08:29:35;;;;;;;7.53;3.30;;;;;;;;;;5007548;28;20026;-85
2023/10/31 08:32:00;;;;;;;7.28;4.93;;;;;;;;;;5018918;28;20060;-85
2023/10/31 08:34:26;;;;;;;5.63;2.95;;;;;;;;;;5026216;28;20029;-84
2023/10/31 08:36:52;;;;;;;7.47;4.00;;;;;;;;;;5027084;28;20096;-85
2023/10/31 08:39:18;;;;;;;10.13;4.00;;;;;;;;;;5028168;28;20029;-85
2023/10/31 08:41:53;;;;;;;6.65;3.45;;;;;;;;;;5028783;28;20131;-85
2023/10/31 08:44:18;;;;;;;4.90;2.28;;;;;;;;;;5017414;28;20093;-84
2023/10/31 08:46:44;;;;;;;4.53;2.80;;;;;;;;;;5033128;28;20526;-85
2023/10/31 08:49:09;;;;;;;5.88;4.20;;;;;;;;;;5011486;28;20029;-83
2023/10/31 08:51:34;;;;;;;9.82;4.40;;;;;;;;;;5028825;28;20037;-84
2023/10/31 08:54:00;;;;;;;3.17;1.60;;;;;;;;;;5028219;28;20098;-84
2023/10/31 08:56:33;;;;;;;7.65;3.05;;;;;;;;;;5028860;28;20064;-90
2023/10/31 08:58:59;;;;;;;3.20;1.95;;;;;;;;;;4996574;28;20025;-85
2023/10/31 09:01:24;;;;;;;5.68;2.97;;;;;;;;;;5013805;28;20027;-85
2023/10/31 09:03:50;;;;;;;4.70;2.40;;;;;;;;;;5019217;28;20479;-85
2023/10/31 09:06:15;;;;;;;6.72;2.70;;;;;;;;;;5028796;28;20061;-85
2023/10/31 09:08:40;;;;;;;6.70;2.55;;;;;;;;;;5027293;28;20036;-84
2023/10/31 09:11:06;;;;;;;5.68;2.25;;;;;;;;;;5026907;28;20026;-84
2023/10/31 09:13:32;;;;;;;5.32;2.15;;;;;;;;;;5023778;28;20022;-85
2023/10/31 09:15:58;;;;;;;3.65;2.20;;;;;;;;;;4993570;28;20026;-84
2023/10/31 09:18:24;;;;;;;7.45;3.42;;;;;;;;;;5027128;28;20021;-85
2023/10/31 09:20:50;;;;;;;13.15;7.70;;;;;;;;;;5012585;28;20668;-84
2023/10/31 09:23:17;;;;;;;9.45;4.82;;;;;;;;;;4995232;28;20040;-85
2023/10/31 09:25:42;;;;;;;5.20;3.00;;;;;;;;;;4994940;28;20365;-84
2023/10/31 09:28:08;;;;;;;7.40;6.40;;;;;;;;;;5011513;28;20042;-85
2023/10/31 09:30:33;;;;;;;12.05;8.75;;;;;;;;;;5013538;28;20033;-83
2023/10/31 09:32:59;;;;;;;10.70;7.47;;;;;;;;;;5031343;28;20540;-85
2023/10/31 09:35:26;;;;;;;11.93;7.32;;;;;;;;;;5020235;28;20660;-84
2023/10/31 09:37:52;;;;;;;8.75;6.00;;;;;;;;;;5012403;28;20484;-85
2023/10/31 09:40:18;;;;;;;9.52;7.03;;;;;;;;;;5003501;28;20025;-85
2023/10/31 09:42:46;;;;;;;8.43;6.15;;;;;;;;;;5014198;28;20022;-84
2023/10/31 09:45:12;;;;;;;;;;;;;;;;;;5026124;28;20168;-84
2023/10/31 09:47:37;;;;;;;11.23;8.30;;;;;;;;;;5012230;28;19906;-84
2023/10/31 09:50:03;;;;;;;28.30;22.70;;;;;;;;;;4997286;28;20065;-85
2023/10/31 09:52:29;;;;;;;17.98;12.40;;;;;;;;;;5013877;28;20502;-84
2023/10/31 09:54:54;;;;;;;14.75;7.68;;;;;;;;;;5031707;28;20013;-83
2023/10/31 09:57:20;;;;;;;8.98;7.43;;;;;;;;;;5013918;28;20031;-84
2023/10/31 09:59:45;;;;;;;13.80;8.93;;;;;;;;;;5018541;28;20021;-84
2023/10/31 10:02:10;;;;;;;20.17;14.07;;;;;;;;;;5010236;28;20021;-85
2023/10/31 10:04:37;;;;;;;37.95;30.42;;;;;;;;;;5013911;28;20132;-84
2023/10/31 10:07:02;;;;;;;24.58;21.48;;;;;;;;;;5016685;28;20038;-84
2023/10/31 10:09:28;;;;;;;10.77;8.45;;;;;;;;;;4994208;28;20030;-85
2023/10/31 10:11:53;;;;;;;12.90;7.78;;;;;;;;;;5020198;28;20143;-84
2023/10/31 10:14:19;;;;;;;28.95;21.73;;;;;;;;;;5013649;28;20391;-84
2023/10/31 10:16:44;;;;;;;13.80;9.80;;;;;;;;;;5023380;28;20026;-85
2023/10/31 10:19:17;;;;;;;13.38;9.65;;;;;;;;;;5010264;28;20507;-84
2023/10/31 10:21:53;;;;;;;15.02;7.90;;;;;;;;;;5016090;28;20080;-84
2023/10/31 10:24:18;;;;;;;19.58;10.02;;;;;;;;;;5031585;28;20024;-84
2023/10/31 10:26:44;;;;;;;21.13;10.00;;;;;;;;;;5026907;28;20022;-85
2023/10/31 10:29:09;;;;;;;21.25;10.80;;;;;;;;;;5009569;28;20028;-84
2023/10/31 10:31:35;;;;;;;30.90;15.38;;;;;;;;;;5009938;28;20498;-84
2023/10/31 10:34:01;;;;;;;5.00;2.83;;;;;;;;;;5031296;28;20105;-85
2023/10/31 10:36:27;;;;;;;4.43;2.20;;;;;;;;;;5013472;28;20105;-85
2023/10/31 10:38:55;;;;;;;4.90;2.30;;;;;;;;;;5014609;28;20029;-84
2023/10/31 10:41:20;;;;;;;;;;;;;;;;;;5013039;28;20464;-84
2023/10/31 10:43:47;;;;;;;4.23;2.27;;;;;;;;;;5008001;28;19915;-84
2023/10/31 10:46:15;;;;;;;5.30;2.45;;;;;;;;;;5033156;28;20713;-84
2023/10/31 10:48:44;;;;;;;5.30;2.33;;;;;;;;;;5012076;28;20022;-83
2023/10/31 10:51:17;;;;;;;7.43;2.50;;;;;;;;;;5017389;28;20033;-83
2023/10/31 10:53:52;;;;;;;5.13;2.00;;;;;;;;;;5016341;28;20022;-85
2023/10/31 10:56:38;;;;;;;6.15;2.40;;;;;;;;;;5020091;28;20090;-85
2023/10/31 10:59:06;;;;;;;5.20;2.17;;;;;;;;;;5031082;28;20061;-86
2023/10/31 11:01:35;;;;;;;3.08;2.00;;;;;;;;;;5009268;28;20415;-85
2023/10/31 11:04:00;;;;;;;5.63;2.42;;;;;;;;;;5015191;28;20076;-89
2023/10/31 11:06:26;;;;;;;4.28;1.90;;;;;;;;;;5031250;28;20467;-83
2023/10/31 11:08:52;;;;;;;5.18;2.58;;;;;;;;;;5034056;28;20036;-86
2023/10/31 11:11:18;;;;;;;7.10;2.45;;;;;;;;;;5001900;28;20034;-83
2023/10/31 11:13:44;;;;;;;4.50;2.50;;;;;;;;;;5034704;28;20028;-84
2023/10/31 11:16:13;;;;;;;5.25;2.35;;;;;;;;;;5038565;28;20645;-83
2023/10/31 11:18:39;;;;;;;6.68;2.65;;;;;;;;;;5031236;28;20025;-83
2023/10/31 11:21:04;;;;;;;4.07;2.53;;;;;;;;;;5019262;28;20080;-83
2023/10/31 11:23:29;;;;;;;5.75;2.20;;;;;;;;;;5028786;28;20029;-83
2023/10/31 11:25:55;;;;;;;11.07;2.70;;;;;;;;;;5020418;28;20026;-84
2023/10/31 11:28:20;;;;;;;6.20;2.50;;;;;;;;;;5009849;28;20678;-83
2023/10/31 11:30:48;;;;;;;6.15;2.33;;;;;;;;;;5019416;28;20029;-83
2023/10/31 11:33:16;;;;;;;6.47;2.75;;;;;;;;;;5013652;28;20030;-84
2023/10/31 11:35:44;;;;;;;4.38;2.53;;;;;;;;;;5031705;28;20057;-85
2023/10/31 11:38:11;;;;;;;8.35;2.70;;;;;;;;;;5014878;28;20022;-84
2023/10/31 11:40:57;;;;;;;5.60;2.05;;;;;;;;;;5005715;28;20021;-84
2023/10/31 11:43:22;;;;;;;5.57;3.58;;;;;;;;;;5023978;28;20034;-82
2023/10/31 11:45:48;;;;;;;4.43;1.90;;;;;;;;;;5016120;28;20044;-83
2023/10/31 11:48:14;;;;;;;3.78;1.88;;;;;;;;;;5002236;28;20013;-87
2023/10/31 11:50:39;;;;;;;4.63;2.00;;;;;;;;;;5039561;28;20021;-85
2023/10/31 11:53:06;;;;;;;5.90;2.00;;;;;;;;;;5043020;28;20022;-85
2023/10/31 11:55:36;;;;;;;4.25;2.40;;;;;;;;;;5036354;28;20029;-86
2023/10/31 11:58:11;;;;;;;4.57;2.22;;;;;;;;;;5014825;28;20506;-84
2023/10/31 12:00:37;;;;;;;3.72;1.98;;;;;;;;;;5011765;28;20071;-84
2023/10/31 12:03:02;;;;;;;4.13;1.90;;;;;;;;;;5010914;28;20481;-85
2023/10/31 12:05:28;;;;;;;4.32;2.38;;;;;;;;;;5030394;28;20543;-84
2023/10/31 12:07:53;;;;;;;3.67;2.33;;;;;;;;;;5018829;28;20020;-83
2023/10/31 12:10:23;;;;;;;5.93;1.92;;;;;;;;;;5011099;28;20384;-84
2023/10/31 12:12:49;;;;;;;5.50;2.50;;;;;;;;;;5018714;28;20075;-82
2023/10/31 12:15:15;;;;;;;14.02;2.95;;;;;;;;;;5012292;28;20014;-82
2023/10/31 12:17:40;;;;;;;5.28;2.35;;;;;;;;;;4999193;28;20026;-83
2023/10/31 12:20:07;;;;;;;4.70;1.98;;;;;;;;;;5014144;28;20014;-89
2023/10/31 12:22:32;;;;;;;4.50;2.28;;;;;;;;;;5028690;28;20025;-83
2023/10/31 12:25:04;;;;;;;4.57;2.20;;;;;;;;;;5032038;28;20030;-85
2023/10/31 12:27:49;;;;;;;4.03;2.60;;;;;;;;;;5027380;28;20056;-85
2023/10/31 12:30:18;;;;;;;7.15;4.53;;;;;;;;;;5008632;28;20396;-84
2023/10/31 12:32:44;;;;;;;6.13;3.88;;;;;;;;;;5014522;28;20033;-84
2023/10/31 12:35:19;;;;;;;5.97;3.10;;;;;;;;;;5032941;28;20053;-84
2023/10/31 12:37:45;;;;;;;9.00;4.30;;;;;;;;;;5011817;28;20022;-82
2023/10/31 12:40:11;;;;;;;6.82;3.30;;;;;;;;;;5009910;28;20029;-84
2023/10/31 12:42:37;;;;;;;12.38;5.30;;;;;;;;;;4991389;28;20029;-83
2023/10/31 12:45:02;;;;;;;11.75;2.75;;;;;;;;;;5026700;28;20088;-83
2023/10/31 12:47:29;;;;;;;9.32;5.05;;;;;;;;;;5029209;28;20226;-83
2023/10/31 12:50:20;;;;;;;6.38;2.67;;;;;;;;;;5013904;28;20037;-84
2023/10/31 12:52:53;;;;;;;7.40;3.67;;;;;;;;;;5003244;28;20074;-84
2023/10/31 12:55:20;;;;;;;5.22;3.15;;;;;;;;;;5005968;28;20555;-83
2023/10/31 12:57:46;;;;;;;4.00;3.13;;;;;;;;;;5027589;28;20029;-83
2023/10/31 13:00:12;;;;;;;5.78;2.85;;;;;;;;;;5017105;28;20017;-84
2023/10/31 13:02:42;;;;;;;5.97;2.63;;;;;;;;;;5008805;28;20071;-83
2023/10/31 13:05:08;;;;;;;3.88;2.45;;;;;;;;;;5016469;28;20025;-83
2023/10/31 13:07:33;;;;;;;3.70;2.15;;;;;;;;;;5027482;28;20396;-83
2023/10/31 13:09:59;;;;;;;5.25;1.90;;;;;;;;;;5022760;28;20028;-83
2023/10/31 13:12:26;;;;;;;4.40;2.20;;;;;;;;;;5008521;28;20427;-83
2023/10/31 13:14:52;;;;;;;3.17;1.80;;;;;;;;;;5011891;28;20010;-84
2023/10/31 13:17:17;;;;;;;7.05;1.92;;;;;;;;;;5011053;28;20460;-83
2023/10/31 13:19:42;;;;;;;4.05;2.10;;;;;;;;;;5028683;28;20401;-83
2023/10/31 13:22:08;;;;;;;5.90;2.30;;;;;;;;;;5010530;28;20353;-83
2023/10/31 13:24:34;;;;;;;5.25;2.17;;;;;;;;;;4992012;28;20116;-83
2023/10/31 13:27:02;;;;;;;3.35;2.13;;;;;;;;;;5019328;28;20765;-83
2023/10/31 13:29:27;;;;;;;5.45;2.50;;;;;;;;;;5009162;28;20053;-83
2023/10/31 13:31:53;;;;;;;5.82;2.30;;;;;;;;;;5021240;28;20071;-84
2023/10/31 13:34:18;;;;;;;5.18;2.50;;;;;;;;;;5027000;28;20125;-84
2023/10/31 13:36:44;;;;;;;4.90;2.33;;;;;;;;;;5017573;28;20068;-84
2023/10/31 13:39:09;;;;;;;18.38;3.03;;;;;;;;;;5007824;28;20021;-84
2023/10/31 13:41:35;;;;;;;4.35;2.13;;;;;;;;;;5014291;28;20471;-84
2023/10/31 13:44:03;;;;;;;7.70;2.17;;;;;;;;;;5010953;28;20029;-84
2023/10/31 13:46:28;;;;;;;6.28;2.75;;;;;;;;;;5025001;28;20554;-84
2023/10/31 13:48:53;;;;;;;4.68;2.28;;;;;;;;;;5007409;28;20065;-84
2023/10/31 13:51:19;;;;;;;6.25;2.40;;;;;;;;;;4991760;28;20411;-84
2023/10/31 13:53:44;;;;;;;5.05;2.33;;;;;;;;;;5028199;28;20022;-84
2023/10/31 13:56:09;;;;;;;7.53;2.80;;;;;;;;;;5027151;28;20032;-84
2023/10/31 13:58:35;;;;;;;7.85;3.15;;;;;;;;;;4993839;28;20480;-84
2023/10/31 14:01:01;;;;;;;7.68;3.50;;;;;;;;;;5012432;28;20029;-84
2023/10/31 14:03:26;;;;;;;8.35;2.90;;;;;;;;;;5027883;28;20025;-84
2023/10/31 14:05:51;;;;;;;7.72;2.70;;;;;;;;;;5031432;28;20025;-84
2023/10/31 14:08:17;;;;;;;6.47;3.00;;;;;;;;;;5014364;28;20383;-85
2023/10/31 14:10:45;;;;;;;7.45;3.33;;;;;;;;;;5031816;28;20033;-84
2023/10/31 14:13:13;;;;;;;6.63;3.20;;;;;;;;;;5008494;28;20640;-91
2023/10/31 14:15:39;;;;;;;10.27;3.53;;;;;;;;;;5016676;28;20033;-84
2023/10/31 14:18:04;;;;;;;13.82;3.67;;;;;;;;;;5026262;28;20367;-84
2023/10/31 14:20:29;;;;;;;7.47;3.58;;;;;;;;;;5021856;28;20467;-84